Tuesday, October 16, 2018, 10:47 PM GMT
Back to Local

CYQA, Muskoka, Ont.

Location: , , Canada Lat: 44.967
Local Time: 10:47 PM GMT (22:47 GMT) Lon: -79.3
Time Zone: GMT Elev: 918 ft

Show me the last for .
Show Decoded

2018-10-16 22:00 METAR CYQA 162200Z AUTO 22006KT 180V250 9SM BKN075 OVC090 08/00 A2984 RMK SLP116
                 =
2018-10-16 21:00 METAR CYQA 162100Z AUTO 22005KT 180V250 9SM OVC065 08/00 A2986 RMK SLP120 =
2018-10-16 20:00 METAR CYQA 162000Z AUTO 21007KT 9SM BKN045 BKN055 OVC074 08/M00 A2987 RMK SLP126
                 =
2018-10-16 19:00 METAR CYQA 161900Z AUTO 21012G19KT 190V250 9SM BKN044 BKN100 09/00 A2989 RMK
                 SLP132 =
2018-10-16 18:00 METAR CYQA 161800Z AUTO 23011G18KT 190V280 9SM BKN040 BKN046 OVC085 07/M01 A2992
                 RMK SLP143 =
2018-10-16 17:00 METAR CYQA 161700Z AUTO 23009G15KT 9SM OVC036 06/M00 A2996 RMK SLP156 =
2018-10-16 16:00 METAR CYQA 161600Z AUTO 21012G18KT 9SM BKN032 OVC042 05/01 A2999 RMK SLP165 =
2018-10-16 15:00 METAR CYQA 161500Z AUTO 21011KT 9SM SCT030 BKN035 OVC046 04/01 A3001 RMK SLP173
                 =
2018-10-16 14:00 METAR CYQA 161400Z AUTO 20009KT 9SM OVC042 04/02 A3001 RMK SLP175 =
2018-10-16 13:33 METAR CYQA 161333Z AUTO 19007KT 9SM FEW027 BKN042 OVC050 04/03 A3002 RMK SLP179
                 =
2018-10-16 13:19 METAR CYQA 161319Z AUTO 19007KT 9SM -RA FEW014 SCT027 BKN039 OVC055 03/03 A3002
                 RMK SLP180 =
2018-10-16 13:13 METAR CYQA 161313Z AUTO 20005KT 9SM FEW009 BKN027 BKN041 OVC049 03/03 A3003 RMK
                 SLP181 =
2018-10-16 13:09 METAR CYQA 161309Z AUTO 19005KT 170V230 9SM -RA FEW011 SCT020 BKN030 OVC047
                 03/02 A3002 RMK SLP180 =
2018-10-16 13:06 METAR CYQA 161306Z AUTO 19004KT 6SM -RA BR SCT011 SCT016 BKN020 OVC047 03/02
                 A3002 RMK SLP179 =
2018-10-16 13:00 METAR CYQA 161300Z AUTO 22006G15KT 180V250 4SM -RA BR SCT010 BKN013 BKN022
                 OVC047 03/02 A3002 RMK SLP179 =
2018-10-16 12:56 METAR CYQA 161256Z AUTO 20007G15KT 170V250 5SM -RA BR FEW008 BKN013 OVC022 03/02
                 A3002 RMK SLP180 =
2018-10-16 12:35 METAR CYQA 161235Z AUTO 19004KT 9SM -RA SCT011 BKN019 OVC026 02/02 A3003 RMK
                 SLP181 =
2018-10-16 12:20 METAR CYQA 161220Z AUTO 22003KT 200V290 9SM -RA FEW013 SCT017 OVC026 03/02 A3002
                 RMK SLP180 =
2018-10-16 12:19 METAR CYQA 161219Z AUTO 23004KT 210V320 9SM -RA FEW013 SCT017 BKN024 OVC046
                 03/02 A3002 RMK SLP180 =
2018-10-16 12:14 METAR CYQA 161214Z AUTO 26004KT 210V320 9SM -RA SCT013 SCT020 BKN026 OVC046
                 03/02 A3002 RMK SLP180 =
2018-10-16 12:00 METAR CYQA 161200Z AUTO 21007KT 8SM -RA BKN013 OVC022 03/02 A3002 RMK PCPN 0.5MM
                 PAST HR SLP180 =
2018-10-16 11:38 METAR CYQA 161138Z AUTO 22005KT 180V250 9SM -RA SCT013 BKN020 OVC028 03/02 A3002
                 RMK SLP176 =
2018-10-16 11:05 METAR CYQA 161105Z AUTO 21006KT 9SM -RA BKN033 OVC060 03/01 A3001 RMK SLP174 =
2018-10-16 11:04 METAR CYQA 161104Z AUTO 20005KT 9SM BKN033 OVC060 02/01 A3001 RMK SLP174 =
2018-10-16 11:00 METAR CYQA 161100Z AUTO 20005KT 9SM -RA BKN033 OVC060 02/01 A3001 RMK SLP174 =
2018-10-16 10:46 METAR CYQA 161046Z AUTO 19004KT 9SM -RA OVC033 02/01 A3001 RMK SLP174 =
2018-10-16 10:00 METAR CYQA 161000Z AUTO 00000KT 9SM BKN039 BKN050 01/M00 A3002 RMK SLP178 =
2018-10-16 09:00 METAR CYQA 160900Z AUTO 32004KT 9SM SCT034 OVC046 03/M01 A3002 RMK SLP175 =
2018-10-16 08:00 METAR CYQA 160800Z AUTO 32006KT 270V340 9SM SCT032 BKN039 04/M00 A3001 RMK
                 SLP173 =
2018-10-16 07:00 METAR CYQA 160700Z AUTO 29011G18KT 240V310 9SM FEW031 OVC050 04/00 A3000 RMK
                 SLP170 =
2018-10-16 06:00 METAR CYQA 160600Z AUTO 29008G17KT 250V310 9SM SCT030 BKN042 BKN055 04/00 A2999
                 RMK SLP166 =
2018-10-16 05:00 METAR CYQA 160500Z AUTO 28009G15KT 260V320 9SM FEW025 SCT055 03/01 A2998 RMK
                 SLP164 =
2018-10-16 04:59 METAR CYQA 160459Z AUTO 29010G15KT 260V320 9SM FEW025 SCT055 03/01 A2998 RMK
                 SLP164 =
2018-10-16 04:43 METAR CYQA 160443Z AUTO 30013G21KT 9SM -RA FEW023 BKN030 BKN035 BKN055 03/01
                 A2997 RMK SLP162 =
2018-10-16 04:35 METAR CYQA 160435Z AUTO 30009G15KT 260V340 9SM SCT030 BKN036 BKN055 03/01 A2997
                 RMK SLP160 =
2018-10-16 04:18 METAR CYQA 160418Z AUTO 30015G24KT 250V320 9SM -RA SCT028 BKN050 04/01 A2996 RMK
                 SLP157 =
2018-10-16 04:00 METAR CYQA 160400Z AUTO 27011G22KT 9SM OVC050 04/01 A2995 RMK SLP153 =
2018-10-16 03:13 METAR CYQA 160313Z AUTO 26007G18KT 220V290 9SM SCT014 BKN060 03/02 A2994 RMK
                 SLP150 =
2018-10-16 03:00 METAR CYQA 160300Z AUTO 27007G18KT 240V310 9SM BKN014 BKN035 OVC065 03/02 A2993
                 RMK SLP148 =
2018-10-16 02:56 METAR CYQA 160256Z AUTO 27009G18KT 9SM BKN014 BKN033 OVC065 03/02 A2993 RMK
                 SLP146 =
2018-10-16 02:54 METAR CYQA 160254Z AUTO 28011G21KT 250V310 9SM SCT014 OVC065 03/02 A2993 RMK
                 SLP146 =
2018-10-16 02:49 METAR CYQA 160249Z AUTO 29008G23KT 240V310 9SM BKN016 BKN034 BKN041 OVC060 03/02
                 A2993 RMK SLP144 =
2018-10-16 02:32 METAR CYQA 160232Z AUTO 26014G20KT 230V310 9SM -RA BKN016 BKN034 03/02 A2992 RMK
                 ICG PAST HR SLP142 =
2018-10-16 02:27 METAR CYQA 160227Z AUTO 26009KT 230V310 9SM BKN018 BKN032 BKN041 03/02 A2992 RMK
                 ICG PAST HR SLP140 =
2018-10-16 02:23 METAR CYQA 160223Z AUTO 26008KT 230V300 9SM SCT018 SCT032 BKN041 BKN055 03/02
                 A2992 RMK ICG PAST HR SLP140 =
2018-10-16 02:13 METAR CYQA 160213Z AUTO 27009G20KT 240V300 9SM -RA SCT015 SCT023 BKN032 OVC043
                 03/01 A2991 RMK ICG PAST HR SLP138 =
2018-10-16 02:05 METAR CYQA 160205Z AUTO 27013G20KT 230V300 9SM -RA FEW012 BKN021 BKN030 OVC047
                 03/01 A2991 RMK ICG PAST HR SLP138 =
2018-10-16 02:04 METAR CYQA 160204Z AUTO 27013G20KT 230V310 9SM -FZRA FEW012 BKN021 BKN032 OVC042
                 03/01 A2991 RMK ICG PAST HR SLP138 =
2018-10-16 02:00 METAR CYQA 160200Z AUTO 27011G17KT 230V310 9SM -FZRA SCT012 BKN023 BKN032 OVC041
                 03/01 A2991 RMK ICG INTMT SLP137 =
2018-10-16 01:56 METAR CYQA 160156Z AUTO 26009G17KT 240V310 9SM -FZRA SCT013 BKN023 BKN031 OVC047
                 03/01 A2991 RMK ICG INTMT SLP137 =
2018-10-16 01:53 METAR CYQA 160153Z AUTO 26009G15KT 240V310 6SM -FZUP BR SCT010 BKN016 BKN023
                 OVC043 02/01 A2991 RMK ICG INTMT SLP138 =
2018-10-16 01:50 METAR CYQA 160150Z AUTO 27008G17KT 240V310 6SM -SN -FZUP SCT010 BKN016 BKN023
                 OVC043 02/01 A2991 RMK ICG INTMT SLP139 =
2018-10-16 01:44 METAR CYQA 160144Z AUTO 28011G17KT 220V330 9SM -FZRA -SN SCT012 BKN019 BKN025
                 OVC042 02/01 A2991 RMK ICG PRESRR SLP140 =
2018-10-16 01:41 METAR CYQA 160141Z AUTO 27005KT 220V330 9SM -FZRA SCT012 BKN019 BKN025 OVC042
                 02/01 A2991 RMK ICG SLP138 =
2018-10-16 01:36 METAR CYQA 160136Z AUTO 29006G16KT 240V330 9SM -RA FEW010 BKN017 BKN028 OVC042
                 02/01 A2990 RMK SLP137 =
2018-10-16 01:34 METAR CYQA 160134Z AUTO 27007G16KT 240V330 9SM -RA -UP FEW010 BKN017 BKN030
                 BKN042 02/01 A2990 RMK SLP137 =
2018-10-16 01:32 METAR CYQA 160132Z AUTO 28005G16KT 240V330 9SM -RASN -UP BKN015 BKN030 BKN044
                 02/01 A2990 RMK SLP136 =
2018-10-16 01:29 METAR CYQA 160129Z AUTO 30008G19KT 270V330 8SM -RASN BKN016 BKN030 BKN044 02/00
                 A2990 RMK SLP135 =
2018-10-16 01:28 METAR CYQA 160128Z AUTO 30008G19KT 270V330 5SM -RASN BKN016 BKN030 BKN044 02/00
                 A2990 RMK SLP135 =
2018-10-16 01:26 METAR CYQA 160126Z AUTO 29010G25KT 3SM -SN FEW009 BKN019 BKN038 01/00 A2990 RMK
                 SLP135 =
2018-10-16 01:25 METAR CYQA 160125Z AUTO 29009G25KT 3SM RASN FEW009 BKN019 BKN038 01/00 A2990 RMK
                 SLP135 =
2018-10-16 01:20 METAR CYQA 160120Z AUTO 30014G26KT 260V330 2 1/2SM RASN BKN014 BKN021 BKN033
                 01/M00 A2990 RMK SLP135 =
2018-10-16 01:16 METAR CYQA 160116Z AUTO 30018G26KT 240V330 5SM -RA BR SCT014 BKN021 BKN033
                 BKN070 02/00 A2990 RMK PRESRR SLP135 =
2018-10-16 01:15 METAR CYQA 160115Z AUTO 30018G26KT 240V330 7SM -RA SCT014 SCT021 BKN033 BKN065
                 02/00 A2990 RMK SLP134 =
2018-10-16 01:11 METAR CYQA 160111Z AUTO 27013G28KT 240V310 9SM -UP FEW008 BKN032 BKN065 BKN096
                 02/M00 A2990 RMK SLP134 =
2018-10-16 01:09 METAR CYQA 160109Z AUTO 28013G28KT 240V310 7SM -RA -UP FEW008 BKN032 BKN065
                 BKN096 02/M00 A2989 RMK SLP132 =
2018-10-16 01:05 METAR CYQA 160105Z AUTO 27013G35KT 230V300 5SM -RA -UP FEW008 SCT020 BKN032
                 BKN065 02/M01 A2989 RMK SLP131 =
2018-10-16 01:01 METAR CYQA 160101Z AUTO 26015G35KT 230V300 5SM -RA FEW008 SCT020 BKN030 OVC065
                 02/M01 A2988 RMK SLP129 =
2018-10-16 01:00 METAR CYQA 160100Z AUTO 26016G35KT 230V300 7SM -RA FEW020 BKN030 BKN039 03/M00
                 A2989 RMK SLP132 =
2018-10-16 00:59 METAR CYQA 160059Z AUTO 26020G35KT 230V300 7SM -RA FEW022 BKN030 BKN039 03/M00
                 A2989 RMK SLP133 =
2018-10-16 00:44 METAR CYQA 160044Z AUTO 26010G17KT 240V310 9SM -RA FEW030 BKN043 BKN070 BKN091
                 03/01 A2988 RMK SLP128 =
2018-10-16 00:31 METAR CYQA 160031Z AUTO 28009G18KT 250V320 9SM FEW016 SCT036 BKN075 BKN090 03/01
                 A2987 RMK SLP124 =
2018-10-16 00:18 METAR CYQA 160018Z AUTO 28013G20KT 250V320 9SM -RA SCT010 SCT017 BKN032 BKN039
                 02/01 A2987 RMK SLP125 =
2018-10-16 00:15 METAR CYQA 160015Z AUTO 27011G23KT 260V320 9SM SCT010 SCT015 BKN030 BKN037 02/01
                 A2987 RMK SLP125 =
2018-10-16 00:06 METAR CYQA 160006Z AUTO 30017G28KT 230V330 6SM -RA BR BKN010 BKN014 02/00 A2986
                 RMK SLP124 =
2018-10-16 00:03 METAR CYQA 160003Z AUTO 30015G28KT 230V330 6SM -RA -UP BR BKN010 OVC018 02/01
                 A2986 RMK PRESRR SLP121 =
2018-10-16 00:00 METAR CYQA 160000Z AUTO 29014G25KT 230V310 3SM -RA -UP BR BKN010 OVC018 03/01
                 A2986 RMK PRESRR PCPN 1.0MM PAST HR SLP122 =
2018-10-15 23:57 METAR CYQA 152357Z AUTO 26013G23KT 220V290 3SM RA -UP BR BKN010 BKN015 OVC021
                 02/01 A2985 RMK SLP119 =
2018-10-15 23:51 METAR CYQA 152351Z AUTO 25014G23KT 5SM -RA BR BKN010 BKN015 BKN020 OVC025 02/01
                 A2985 RMK SLP118 =
2018-10-15 23:32 METAR CYQA 152332Z AUTO 27011G25KT 250V310 9SM -RA SCT012 BKN018 BKN040 OVC055
                 03/01 A2984 RMK SLP114 =
2018-10-15 23:29 METAR CYQA 152329Z AUTO 27015G25KT 250V310 9SM SCT012 BKN018 BKN028 OVC042 03/01
                 A2984 RMK SLP114 =
2018-10-15 23:01 METAR CYQA 152301Z AUTO 27015G30KT 6SM -RA BR BKN012 BKN017 OVC031 03/02 A2982
                 RMK PRESRR SLP109 =
2018-10-15 23:00 METAR CYQA 152300Z AUTO 27016G30KT 5SM -RA BR BKN012 BKN017 OVC031 03/02 A2982
                 RMK SLP108 =
2018-10-15 22:51 METAR CYQA 152251Z AUTO 26018G28KT 240V310 5SM -RA BR BKN014 OVC020 04/03 A2982
                 RMK PRESRR SLP109 =

Support USWX by starting your Amazon purchase here.